Airport Name : Usiminas

Other Name : Usiminas

ICAO : SBIP

IATA : IPN

FAA :

Latitude : -19.470722

Longitude : -42.487583

Country : Brazil

Local Date and Time : 07 Mar 2021 11:49

 

TAF (Terminal Aerodrome Forecast)

 

METAR (METeorological Aerodrome Report)

SBIP 071300Z AUTO VRB02KT 9999 FEW015 25/21 Q1014

SBIP 071200Z AUTO VRB01KT 9999 SCT011 26/22 Q1014

SBIP 071100Z AUTO VRB02KT 9999 BKN004 22/22 Q1014

To Charter a Jet Click here.